sensor_id;sensor_type;location;lat;lon;timestamp;pressure;altitude;pressure_sealevel;temperature;humidity
42603;BME280;28233;55.748;48.752;2022-09-20T00:01:54;98918.53;;;11.50;77.44
42603;BME280;28233;55.748;48.752;2022-09-20T00:03:59;98915.34;;;11.48;77.62
42603;BME280;28233;55.748;48.752;2022-09-20T00:06:03;98916.00;;;11.45;77.45
42603;BME280;28233;55.748;48.752;2022-09-20T00:08:09;98921.03;;;11.42;77.55
42603;BME280;28233;55.748;48.752;2022-09-20T00:10:13;98913.94;;;11.41;77.55
42603;BME280;28233;55.748;48.752;2022-09-20T00:12:15;98915.44;;;11.39;77.36
42603;BME280;28233;55.748;48.752;2022-09-20T00:14:18;98918.06;;;11.35;77.62
42603;BME280;28233;55.748;48.752;2022-09-20T00:16:23;98921.50;;;11.32;77.78
42603;BME280;28233;55.748;48.752;2022-09-20T00:18:27;98930.91;;;11.31;77.63
42603;BME280;28233;55.748;48.752;2022-09-20T00:20:29;98930.06;;;11.31;78.01
42603;BME280;28233;55.748;48.752;2022-09-20T00:22:32;98933.50;;;11.28;78.00
42603;BME280;28233;55.748;48.752;2022-09-20T00:24:34;98931.09;;;11.26;77.87
42603;BME280;28233;55.748;48.752;2022-09-20T00:26:37;98931.78;;;11.23;78.30
42603;BME280;28233;55.748;48.752;2022-09-20T00:28:41;98931.47;;;11.25;78.37
42603;BME280;28233;55.748;48.752;2022-09-20T00:30:44;98926.97;;;11.20;78.21
42603;BME280;28233;55.748;48.752;2022-09-20T00:32:47;98935.22;;;11.20;78.58
42603;BME280;28233;55.748;48.752;2022-09-20T00:34:49;98937.50;;;11.18;78.63
42603;BME280;28233;55.748;48.752;2022-09-20T00:37:12;98934.75;;;11.18;78.13
42603;BME280;28233;55.748;48.752;2022-09-20T00:39:15;98952.38;;;11.17;78.30
42603;BME280;28233;55.748;48.752;2022-09-20T00:41:18;98948.38;;;11.14;78.47
42603;BME280;28233;55.748;48.752;2022-09-20T00:43:38;98946.78;;;11.13;78.68
42603;BME280;28233;55.748;48.752;2022-09-20T00:45:43;98954.09;;;11.09;78.62
42603;BME280;28233;55.748;48.752;2022-09-20T00:50:43;98946.38;;;11.03;79.38
42603;BME280;28233;55.748;48.752;2022-09-20T00:52:20;98956.25;;;11.04;79.46
42603;BME280;28233;55.748;48.752;2022-09-20T00:54:24;98947.88;;;11.00;79.15
42603;BME280;28233;55.748;48.752;2022-09-20T00:56:35;98948.34;;;11.02;79.39
42603;BME280;28233;55.748;48.752;2022-09-20T00:58:41;98952.56;;;10.99;79.44
42603;BME280;28233;55.748;48.752;2022-09-20T01:00:45;98956.34;;;10.95;79.34
42603;BME280;28233;55.748;48.752;2022-09-20T01:02:53;98960.22;;;10.94;78.96
42603;BME280;28233;55.748;48.752;2022-09-20T01:04:58;98966.53;;;10.94;79.41
42603;BME280;28233;55.748;48.752;2022-09-20T01:07:04;98970.41;;;10.93;79.82
42603;BME280;28233;55.748;48.752;2022-09-20T01:09:08;98961.72;;;10.91;79.84
42603;BME280;28233;55.748;48.752;2022-09-20T01:11:11;98954.59;;;10.90;79.92
42603;BME280;28233;55.748;48.752;2022-09-20T01:13:13;98957.00;;;10.92;80.07
42603;BME280;28233;55.748;48.752;2022-09-20T01:15:17;98950.25;;;10.89;79.97
42603;BME280;28233;55.748;48.752;2022-09-20T01:17:22;98957.22;;;10.87;79.67
42603;BME280;28233;55.748;48.752;2022-09-20T01:22:02;98968.88;;;10.84;80.04
42603;BME280;28233;55.748;48.752;2022-09-20T01:24:22;98965.66;;;10.82;80.20
42603;BME280;28233;55.748;48.752;2022-09-20T01:26:58;98965.22;;;10.79;80.37
42603;BME280;28233;55.748;48.752;2022-09-20T01:29:11;98973.78;;;10.78;80.66
42603;BME280;28233;55.748;48.752;2022-09-20T01:31:28;98972.38;;;10.72;80.68
42603;BME280;28233;55.748;48.752;2022-09-20T01:33:43;98978.34;;;10.74;80.83
42603;BME280;28233;55.748;48.752;2022-09-20T01:35:49;98977.06;;;10.71;80.79
42603;BME280;28233;55.748;48.752;2022-09-20T01:40:17;98976.28;;;10.71;80.82
42603;BME280;28233;55.748;48.752;2022-09-20T01:42:28;98976.94;;;10.68;81.26
42603;BME280;28233;55.748;48.752;2022-09-20T01:46:50;98973.47;;;10.58;80.69
42603;BME280;28233;55.748;48.752;2022-09-20T01:52:10;98972.63;;;10.58;81.07
42603;BME280;28233;55.748;48.752;2022-09-20T02:02:06;98998.72;;;10.52;81.68
42603;BME280;28233;55.748;48.752;2022-09-20T02:06:58;98988.72;;;10.47;81.43
42603;BME280;28233;55.748;48.752;2022-09-20T02:14:11;99010.56;;;10.44;81.99
42603;BME280;28233;55.748;48.752;2022-09-20T02:19:13;99003.13;;;10.44;82.47
42603;BME280;28233;55.748;48.752;2022-09-20T02:25:52;99015.25;;;10.43;81.58
42603;BME280;28233;55.748;48.752;2022-09-20T02:30:37;99012.38;;;10.40;81.54
42603;BME280;28233;55.748;48.752;2022-09-20T02:42:03;99019.38;;;10.28;82.24
42603;BME280;28233;55.748;48.752;2022-09-20T02:44:17;99017.72;;;10.27;82.00
42603;BME280;28233;55.748;48.752;2022-09-20T02:48:50;99025.97;;;10.27;81.89
42603;BME280;28233;55.748;48.752;2022-09-20T02:51:15;99021.31;;;10.28;81.94
42603;BME280;28233;55.748;48.752;2022-09-20T02:56:05;99029.69;;;10.31;82.08
42603;BME280;28233;55.748;48.752;2022-09-20T03:00:22;99024.69;;;10.33;81.40
42603;BME280;28233;55.748;48.752;2022-09-20T03:02:39;99030.66;;;10.35;81.38
42603;BME280;28233;55.748;48.752;2022-09-20T03:08:03;99041.75;;;10.39;81.68
42603;BME280;28233;55.748;48.752;2022-09-20T03:10:16;99039.69;;;10.36;81.31
42603;BME280;28233;55.748;48.752;2022-09-20T03:15:19;99040.16;;;10.38;81.18
42603;BME280;28233;55.748;48.752;2022-09-20T03:17:35;99041.44;;;10.41;81.41
42603;BME280;28233;55.748;48.752;2022-09-20T03:25:06;99055.72;;;10.55;81.06
42603;BME280;28233;55.748;48.752;2022-09-20T03:39:06;99067.47;;;10.85;80.15
42603;BME280;28233;55.748;48.752;2022-09-20T03:46:14;99057.34;;;10.98;79.22
42603;BME280;28233;55.748;48.752;2022-09-20T04:05:14;99077.56;;;11.35;78.44
42603;BME280;28233;55.748;48.752;2022-09-20T04:10:05;99087.72;;;11.43;78.17
42603;BME280;28233;55.748;48.752;2022-09-20T04:15:21;99088.44;;;11.53;77.67
42603;BME280;28233;55.748;48.752;2022-09-20T04:19:51;99100.97;;;11.62;77.58
42603;BME280;28233;55.748;48.752;2022-09-20T04:21:59;99088.31;;;11.61;77.78
42603;BME280;28233;55.748;48.752;2022-09-20T04:24:22;99096.03;;;11.68;77.25
42603;BME280;28233;55.748;48.752;2022-09-20T04:26:29;99093.53;;;11.75;77.51
42603;BME280;28233;55.748;48.752;2022-09-20T04:28:52;99113.06;;;11.82;76.96
42603;BME280;28233;55.748;48.752;2022-09-20T04:31:05;99106.88;;;11.85;76.47
42603;BME280;28233;55.748;48.752;2022-09-20T04:33:25;99102.31;;;11.90;76.84
42603;BME280;28233;55.748;48.752;2022-09-20T04:38:15;99119.31;;;12.04;76.54
42603;BME280;28233;55.748;48.752;2022-09-20T04:40:33;99114.75;;;12.08;76.37
42603;BME280;28233;55.748;48.752;2022-09-20T05:00:15;99117.44;;;12.54;74.36
42603;BME280;28233;55.748;48.752;2022-09-20T05:24:39;99128.72;;;13.14;72.32
42603;BME280;28233;55.748;48.752;2022-09-20T05:29:13;99131.16;;;13.27;71.65
42603;BME280;28233;55.748;48.752;2022-09-20T05:31:42;99134.44;;;13.33;71.70
42603;BME280;28233;55.748;48.752;2022-09-20T05:34:00;99135.81;;;13.39;70.84
42603;BME280;28233;55.748;48.752;2022-09-20T05:36:12;99138.69;;;13.43;69.71
42603;BME280;28233;55.748;48.752;2022-09-20T05:43:26;99125.19;;;13.53;69.35
42603;BME280;28233;55.748;48.752;2022-09-20T05:48:31;99123.53;;;13.65;69.76
42603;BME280;28233;55.748;48.752;2022-09-20T05:50:59;99139.50;;;13.71;69.28
42603;BME280;28233;55.748;48.752;2022-09-20T05:53:44;99126.94;;;13.74;69.67
42603;BME280;28233;55.748;48.752;2022-09-20T05:58:15;99139.31;;;13.80;69.27
42603;BME280;28233;55.748;48.752;2022-09-20T06:00:21;99139.09;;;13.85;69.41
42603;BME280;28233;55.748;48.752;2022-09-20T06:16:17;99131.13;;;14.28;65.51
42603;BME280;28233;55.748;48.752;2022-09-20T06:18:37;99138.78;;;14.34;66.33
42603;BME280;28233;55.748;48.752;2022-09-20T06:22:58;99144.50;;;14.42;64.84
42603;BME280;28233;55.748;48.752;2022-09-20T06:27:23;99136.59;;;14.56;65.95
42603;BME280;28233;55.748;48.752;2022-09-20T06:29:39;99141.13;;;14.64;65.47
42603;BME280;28233;55.748;48.752;2022-09-20T06:31:43;99155.91;;;14.72;64.05
42603;BME280;28233;55.748;48.752;2022-09-20T06:34:03;99144.63;;;14.77;63.14
42603;BME280;28233;55.748;48.752;2022-09-20T06:36:16;99143.53;;;14.82;63.25
42603;BME280;28233;55.748;48.752;2022-09-20T06:41:30;99151.72;;;14.94;61.50
42603;BME280;28233;55.748;48.752;2022-09-20T06:43:37;99154.25;;;15.02;61.85
42603;BME280;28233;55.748;48.752;2022-09-20T06:45:41;99150.88;;;15.09;61.55
42603;BME280;28233;55.748;48.752;2022-09-20T06:47:44;99158.88;;;15.14;60.70
42603;BME280;28233;55.748;48.752;2022-09-20T06:49:48;99134.41;;;15.16;60.89
42603;BME280;28233;55.748;48.752;2022-09-20T06:51:51;99148.69;;;15.18;60.49
42603;BME280;28233;55.748;48.752;2022-09-20T06:53:55;99146.47;;;15.24;59.47
42603;BME280;28233;55.748;48.752;2022-09-20T06:55:59;99141.88;;;15.32;59.46
42603;BME280;28233;55.748;48.752;2022-09-20T06:58:03;99140.34;;;15.34;59.48
42603;BME280;28233;55.748;48.752;2022-09-20T07:00:06;99144.50;;;15.44;59.96
42603;BME280;28233;55.748;48.752;2022-09-20T07:02:12;99154.13;;;15.50;59.45
42603;BME280;28233;55.748;48.752;2022-09-20T07:04:14;99154.19;;;15.54;58.42
42603;BME280;28233;55.748;48.752;2022-09-20T07:06:17;99159.44;;;15.59;58.05
42603;BME280;28233;55.748;48.752;2022-09-20T07:08:21;99151.13;;;15.59;57.60
42603;BME280;28233;55.748;48.752;2022-09-20T07:10:25;99147.34;;;15.67;58.40
42603;BME280;28233;55.748;48.752;2022-09-20T07:12:31;99163.63;;;15.69;57.44
42603;BME280;28233;55.748;48.752;2022-09-20T07:14:36;99164.94;;;15.75;57.17
42603;BME280;28233;55.748;48.752;2022-09-20T07:16:39;99168.94;;;15.77;57.03
42603;BME280;28233;55.748;48.752;2022-09-20T07:18:42;99161.06;;;15.79;57.95
42603;BME280;28233;55.748;48.752;2022-09-20T07:20:44;99173.91;;;15.88;57.28
42603;BME280;28233;55.748;48.752;2022-09-20T07:22:48;99162.53;;;15.93;56.59
42603;BME280;28233;55.748;48.752;2022-09-20T07:24:51;99172.88;;;15.96;56.93
42603;BME280;28233;55.748;48.752;2022-09-20T07:26:56;99162.66;;;16.00;57.33
42603;BME280;28233;55.748;48.752;2022-09-20T07:28:59;99164.34;;;16.04;55.92
42603;BME280;28233;55.748;48.752;2022-09-20T07:31:02;99153.69;;;16.06;55.44
42603;BME280;28233;55.748;48.752;2022-09-20T07:33:05;99164.09;;;16.13;55.17
42603;BME280;28233;55.748;48.752;2022-09-20T07:35:10;99152.72;;;16.18;56.24
42603;BME280;28233;55.748;48.752;2022-09-20T07:37:16;99157.16;;;16.23;55.94
42603;BME280;28233;55.748;48.752;2022-09-20T07:39:18;99157.28;;;16.30;55.50
42603;BME280;28233;55.748;48.752;2022-09-20T07:41:21;99152.59;;;16.34;55.99
42603;BME280;28233;55.748;48.752;2022-09-20T07:43:24;99148.34;;;16.40;55.45
42603;BME280;28233;55.748;48.752;2022-09-20T07:45:27;99144.47;;;16.45;55.29
42603;BME280;28233;55.748;48.752;2022-09-20T07:47:31;99143.34;;;16.49;54.42
42603;BME280;28233;55.748;48.752;2022-09-20T07:49:36;99152.53;;;16.54;54.80
42603;BME280;28233;55.748;48.752;2022-09-20T07:51:39;99153.78;;;16.56;52.81
42603;BME280;28233;55.748;48.752;2022-09-20T07:53:42;99167.69;;;16.60;52.44
42603;BME280;28233;55.748;48.752;2022-09-20T07:56:09;99153.09;;;16.63;53.77
42603;BME280;28233;55.748;48.752;2022-09-20T07:58:12;99153.63;;;16.72;54.17
42603;BME280;28233;55.748;48.752;2022-09-20T08:00:15;99159.31;;;16.79;53.98
42603;BME280;28233;55.748;48.752;2022-09-20T08:02:18;99162.09;;;16.79;52.29
42603;BME280;28233;55.748;48.752;2022-09-20T08:04:21;99161.34;;;16.82;51.46
42603;BME280;28233;55.748;48.752;2022-09-20T08:06:23;99155.13;;;16.89;50.97
42603;BME280;28233;55.748;48.752;2022-09-20T08:08:27;99155.94;;;16.93;51.24
42603;BME280;28233;55.748;48.752;2022-09-20T08:10:33;99158.00;;;16.96;50.74
42603;BME280;28233;55.748;48.752;2022-09-20T08:12:35;99167.13;;;16.97;50.67
42603;BME280;28233;55.748;48.752;2022-09-20T08:14:58;99194.88;;;16.97;49.89
42603;BME280;28233;55.748;48.752;2022-09-20T08:17:05;99177.84;;;16.98;49.53
42603;BME280;28233;55.748;48.752;2022-09-20T08:19:12;99169.22;;;17.03;50.20
42603;BME280;28233;55.748;48.752;2022-09-20T08:21:16;99160.56;;;17.08;50.18
42603;BME280;28233;55.748;48.752;2022-09-20T08:23:18;99168.19;;;17.15;51.03
42603;BME280;28233;55.748;48.752;2022-09-20T08:25:25;99169.88;;;17.23;50.27
42603;BME280;28233;55.748;48.752;2022-09-20T08:27:27;99166.38;;;17.26;49.93
42603;BME280;28233;55.748;48.752;2022-09-20T08:29:30;99178.72;;;17.32;49.35
42603;BME280;28233;55.748;48.752;2022-09-20T08:31:36;99167.63;;;17.32;49.25
42603;BME280;28233;55.748;48.752;2022-09-20T08:33:39;99166.13;;;17.39;49.91
42603;BME280;28233;55.748;48.752;2022-09-20T08:35:42;99167.78;;;17.43;49.77
42603;BME280;28233;55.748;48.752;2022-09-20T08:37:45;99171.03;;;17.49;49.88
42603;BME280;28233;55.748;48.752;2022-09-20T08:39:48;99166.69;;;17.51;48.56
42603;BME280;28233;55.748;48.752;2022-09-20T08:42:29;99170.66;;;17.50;48.09
42603;BME280;28233;55.748;48.752;2022-09-20T08:44:57;99165.09;;;17.50;47.64
42603;BME280;28233;55.748;48.752;2022-09-20T08:47:15;99166.75;;;17.55;48.54
42603;BME280;28233;55.748;48.752;2022-09-20T08:49:26;99164.84;;;17.63;48.81
42603;BME280;28233;55.748;48.752;2022-09-20T08:51:33;99165.38;;;17.72;49.10
42603;BME280;28233;55.748;48.752;2022-09-20T08:53:50;99176.53;;;17.75;48.74
42603;BME280;28233;55.748;48.752;2022-09-20T08:55:55;99192.94;;;17.84;48.93
42603;BME280;28233;55.748;48.752;2022-09-20T08:58:01;99165.97;;;17.88;48.54
42603;BME280;28233;55.748;48.752;2022-09-20T09:00:16;99161.28;;;17.96;47.93
42603;BME280;28233;55.748;48.752;2022-09-20T09:02:20;99170.13;;;18.02;48.54
42603;BME280;28233;55.748;48.752;2022-09-20T09:04:33;99162.59;;;18.06;47.73
42603;BME280;28233;55.748;48.752;2022-09-20T09:06:37;99170.97;;;18.09;48.60
42603;BME280;28233;55.748;48.752;2022-09-20T09:08:41;99172.66;;;18.17;47.74
42603;BME280;28233;55.748;48.752;2022-09-20T09:11:11;99178.28;;;18.25;48.19
42603;BME280;28233;55.748;48.752;2022-09-20T09:13:47;99173.13;;;18.27;47.15
42603;BME280;28233;55.748;48.752;2022-09-20T09:16:00;99170.41;;;18.30;47.94
42603;BME280;28233;55.748;48.752;2022-09-20T09:18:08;99166.91;;;18.37;47.54
42603;BME280;28233;55.748;48.752;2022-09-20T09:24:38;99162.63;;;18.47;47.09
42603;BME280;28233;55.748;48.752;2022-09-20T09:26:41;99155.09;;;18.51;47.43
42603;BME280;28233;55.748;48.752;2022-09-20T09:29:20;99165.06;;;18.55;47.33
42603;BME280;28233;55.748;48.752;2022-09-20T09:31:24;99153.59;;;18.61;46.68
42603;BME280;28233;55.748;48.752;2022-09-20T09:33:32;99161.94;;;18.61;46.18
42603;BME280;28233;55.748;48.752;2022-09-20T09:35:35;99146.41;;;18.56;46.55
42603;BME280;28233;55.748;48.752;2022-09-20T09:37:38;99157.13;;;18.57;46.66
42603;BME280;28233;55.748;48.752;2022-09-20T09:39:42;99151.63;;;18.65;46.66
42603;BME280;28233;55.748;48.752;2022-09-20T09:41:44;99147.72;;;18.73;47.17
42603;BME280;28233;55.748;48.752;2022-09-20T09:43:57;99149.78;;;18.79;46.13
42603;BME280;28233;55.748;48.752;2022-09-20T09:48:26;99145.88;;;18.88;46.21
42603;BME280;28233;55.748;48.752;2022-09-20T09:50:32;99163.78;;;18.90;45.13
42603;BME280;28233;55.748;48.752;2022-09-20T09:52:35;99162.97;;;18.86;44.82
42603;BME280;28233;55.748;48.752;2022-09-20T09:54:50;99155.47;;;18.94;44.80
42603;BME280;28233;55.748;48.752;2022-09-20T10:01:48;99150.69;;;18.94;45.13
42603;BME280;28233;55.748;48.752;2022-09-20T10:03:57;99159.47;;;18.96;44.53
42603;BME280;28233;55.748;48.752;2022-09-20T10:06:17;99175.00;;;19.01;43.89
42603;BME280;28233;55.748;48.752;2022-09-20T10:08:27;99157.88;;;18.99;44.12
42603;BME280;28233;55.748;48.752;2022-09-20T10:11:18;99163.06;;;19.00;44.03
42603;BME280;28233;55.748;48.752;2022-09-20T10:20:14;99147.22;;;19.08;44.90
42603;BME280;28233;55.748;48.752;2022-09-20T10:28:18;99162.00;;;19.23;42.73
42603;BME280;28233;55.748;48.752;2022-09-20T10:30:22;99179.13;;;19.21;42.34
42603;BME280;28233;55.748;48.752;2022-09-20T10:37:00;99165.66;;;19.34;44.17
42603;BME280;28233;55.748;48.752;2022-09-20T10:39:33;99156.56;;;19.44;42.44
42603;BME280;28233;55.748;48.752;2022-09-20T10:51:40;99169.09;;;19.79;42.35
42603;BME280;28233;55.748;48.752;2022-09-20T11:00:53;99153.25;;;20.12;41.06
42603;BME280;28233;55.748;48.752;2022-09-20T11:08:09;99152.50;;;20.40;40.45
42603;BME280;28233;55.748;48.752;2022-09-20T11:10:31;99154.91;;;20.49;39.30
42603;BME280;28233;55.748;48.752;2022-09-20T11:12:45;99157.31;;;20.61;39.35
42603;BME280;28233;55.748;48.752;2022-09-20T11:15:02;99146.16;;;20.68;40.27
42603;BME280;28233;55.748;48.752;2022-09-20T11:19:23;99156.53;;;20.93;39.86
42603;BME280;28233;55.748;48.752;2022-09-20T11:21:58;99151.31;;;21.02;40.44
42603;BME280;28233;55.748;48.752;2022-09-20T11:26:31;99152.50;;;21.19;39.54
42603;BME280;28233;55.748;48.752;2022-09-20T11:28:43;99152.06;;;21.28;38.37
42603;BME280;28233;55.748;48.752;2022-09-20T11:33:34;99150.44;;;21.52;39.74
42603;BME280;28233;55.748;48.752;2022-09-20T11:35:48;99154.34;;;21.65;39.73
42603;BME280;28233;55.748;48.752;2022-09-20T11:40:44;99156.28;;;21.83;36.58
42603;BME280;28233;55.748;48.752;2022-09-20T11:42:49;99157.88;;;21.87;36.61
42603;BME280;28233;55.748;48.752;2022-09-20T11:44:54;99157.88;;;21.87;37.26
42603;BME280;28233;55.748;48.752;2022-09-20T11:58:14;99152.78;;;22.38;35.75
42603;BME280;28233;55.748;48.752;2022-09-20T12:00:28;99151.06;;;22.55;36.35
42603;BME280;28233;55.748;48.752;2022-09-20T12:02:49;99153.38;;;22.67;36.91
42603;BME280;28233;55.748;48.752;2022-09-20T12:04:54;99150.91;;;22.76;35.79
42603;BME280;28233;55.748;48.752;2022-09-20T12:07:07;99166.03;;;22.86;35.25
42603;BME280;28233;55.748;48.752;2022-09-20T12:09:26;99161.91;;;22.98;35.32
42603;BME280;28233;55.748;48.752;2022-09-20T12:11:35;99151.47;;;23.02;35.99
42603;BME280;28233;55.748;48.752;2022-09-20T12:13:42;99155.56;;;22.90;35.82
42603;BME280;28233;55.748;48.752;2022-09-20T12:16:02;99144.31;;;23.01;35.85
42603;BME280;28233;55.748;48.752;2022-09-20T12:22:46;99147.56;;;23.34;35.00
42603;BME280;28233;55.748;48.752;2022-09-20T12:31:37;99151.09;;;23.76;33.37
42603;BME280;28233;55.748;48.752;2022-09-20T12:36:15;99159.19;;;23.67;33.48
42603;BME280;28233;55.748;48.752;2022-09-20T12:38:30;99157.97;;;23.68;33.46
42603;BME280;28233;55.748;48.752;2022-09-20T12:40:33;99165.78;;;23.87;33.03
42603;BME280;28233;55.748;48.752;2022-09-20T12:42:36;99153.66;;;23.94;32.58
42603;BME280;28233;55.748;48.752;2022-09-20T12:51:50;99153.75;;;24.44;32.02
42603;BME280;28233;55.748;48.752;2022-09-20T12:54:11;99146.28;;;24.61;31.95
42603;BME280;28233;55.748;48.752;2022-09-20T12:56:19;99143.06;;;24.63;30.83
42603;BME280;28233;55.748;48.752;2022-09-20T12:58:34;99152.56;;;24.69;31.15
42603;BME280;28233;55.748;48.752;2022-09-20T13:04:54;99139.13;;;24.80;30.95
42603;BME280;28233;55.748;48.752;2022-09-20T13:07:29;99133.72;;;24.93;30.76
42603;BME280;28233;55.748;48.752;2022-09-20T13:09:34;99139.44;;;25.09;30.19
42603;BME280;28233;55.748;48.752;2022-09-20T13:11:48;99132.84;;;25.20;30.60
42603;BME280;28233;55.748;48.752;2022-09-20T13:15:57;99138.31;;;25.47;30.21
42603;BME280;28233;55.748;48.752;2022-09-20T13:18:01;99137.78;;;25.36;30.39
42603;BME280;28233;55.748;48.752;2022-09-20T13:20:04;99134.88;;;25.39;30.24
42603;BME280;28233;55.748;48.752;2022-09-20T13:22:16;99133.16;;;25.45;29.98
42603;BME280;28233;55.748;48.752;2022-09-20T13:24:23;99143.75;;;25.58;30.69
42603;BME280;28233;55.748;48.752;2022-09-20T13:26:32;99142.09;;;25.60;30.58
42603;BME280;28233;55.748;48.752;2022-09-20T13:28:48;99144.38;;;25.65;30.58
42603;BME280;28233;55.748;48.752;2022-09-20T13:31:19;99149.16;;;25.68;30.74
42603;BME280;28233;55.748;48.752;2022-09-20T13:33:24;99149.16;;;25.68;30.53
42603;BME280;28233;55.748;48.752;2022-09-20T13:35:27;99158.66;;;25.74;30.20
42603;BME280;28233;55.748;48.752;2022-09-20T13:37:34;99150.84;;;25.66;30.45
42603;BME280;28233;55.748;48.752;2022-09-20T13:39:38;99147.34;;;25.78;29.66
42603;BME280;28233;55.748;48.752;2022-09-20T13:41:42;99134.00;;;25.82;29.40
42603;BME280;28233;55.748;48.752;2022-09-20T13:43:46;99150.69;;;25.73;29.96
42603;BME280;28233;55.748;48.752;2022-09-20T13:45:53;99153.81;;;25.75;30.03
42603;BME280;28233;55.748;48.752;2022-09-20T13:47:59;99151.56;;;25.90;29.94
42603;BME280;28233;55.748;48.752;2022-09-20T13:52:29;99155.78;;;25.98;29.77
42603;BME280;28233;55.748;48.752;2022-09-20T13:54:51;99159.16;;;26.09;30.60
42603;BME280;28233;55.748;48.752;2022-09-20T13:56:55;99155.63;;;26.05;31.11
42603;BME280;28233;55.748;48.752;2022-09-20T13:59:03;99153.63;;;26.06;30.42
42603;BME280;28233;55.748;48.752;2022-09-20T14:01:29;99159.16;;;26.09;30.13
42603;BME280;28233;55.748;48.752;2022-09-20T14:03:33;99169.69;;;26.05;30.46
42603;BME280;28233;55.748;48.752;2022-09-20T14:05:37;99166.47;;;25.87;30.77
42603;BME280;28233;55.748;48.752;2022-09-20T14:07:48;99176.84;;;25.70;30.98
42603;BME280;28233;55.748;48.752;2022-09-20T14:09:51;99177.16;;;25.76;30.42
42603;BME280;28233;55.748;48.752;2022-09-20T14:11:56;99173.75;;;25.84;29.78
42603;BME280;28233;55.748;48.752;2022-09-20T14:14:02;99168.69;;;25.56;30.44
42603;BME280;28233;55.748;48.752;2022-09-20T14:16:07;99176.13;;;25.46;30.59
42603;BME280;28233;55.748;48.752;2022-09-20T14:18:14;99176.78;;;25.34;30.79
42603;BME280;28233;55.748;48.752;2022-09-20T14:20:18;99178.63;;;25.20;30.62
42603;BME280;28233;55.748;48.752;2022-09-20T14:22:27;99172.47;;;25.02;30.78
42603;BME280;28233;55.748;48.752;2022-09-20T14:24:36;99170.69;;;24.64;31.80
42603;BME280;28233;55.748;48.752;2022-09-20T14:26:41;99178.81;;;24.01;32.59
42603;BME280;28233;55.748;48.752;2022-09-20T14:28:44;99178.56;;;23.54;33.26
42603;BME280;28233;55.748;48.752;2022-09-20T14:31:29;99189.06;;;23.05;34.26
42603;BME280;28233;55.748;48.752;2022-09-20T14:33:30;99177.88;;;22.56;35.05
42603;BME280;28233;55.748;48.752;2022-09-20T14:35:33;99188.47;;;22.23;35.69
42603;BME280;28233;55.748;48.752;2022-09-20T14:40:30;99185.97;;;21.55;37.73
42603;BME280;28233;55.748;48.752;2022-09-20T14:42:35;99184.78;;;21.38;38.13
42603;BME280;28233;55.748;48.752;2022-09-20T14:44:42;99183.63;;;21.18;39.04
42603;BME280;28233;55.748;48.752;2022-09-20T14:46:45;99183.63;;;21.00;40.30
42603;BME280;28233;55.748;48.752;2022-09-20T14:48:48;99190.03;;;20.82;40.43
42603;BME280;28233;55.748;48.752;2022-09-20T14:55:22;99196.72;;;20.31;40.80
42603;BME280;28233;55.748;48.752;2022-09-20T14:57:29;99197.91;;;20.16;41.43
42603;BME280;28233;55.748;48.752;2022-09-20T14:59:42;99202.59;;;19.94;41.39
42603;BME280;28233;55.748;48.752;2022-09-20T15:01:52;99196.53;;;19.77;42.03
42603;BME280;28233;55.748;48.752;2022-09-20T15:03:56;99193.22;;;19.54;42.02
42603;BME280;28233;55.748;48.752;2022-09-20T15:06:00;99200.66;;;19.35;42.14
42603;BME280;28233;55.748;48.752;2022-09-20T15:08:02;99201.03;;;19.27;43.08
42603;BME280;28233;55.748;48.752;2022-09-20T15:10:10;99199.78;;;19.20;42.73
42603;BME280;28233;55.748;48.752;2022-09-20T15:12:18;99205.31;;;19.10;43.38
42603;BME280;28233;55.748;48.752;2022-09-20T15:14:21;99202.44;;;18.99;42.92
42603;BME280;28233;55.748;48.752;2022-09-20T15:16:24;99205.53;;;18.87;43.80
42603;BME280;28233;55.748;48.752;2022-09-20T15:18:32;99203.06;;;18.78;43.36
42603;BME280;28233;55.748;48.752;2022-09-20T15:20:36;99205.72;;;18.67;43.84
42603;BME280;28233;55.748;48.752;2022-09-20T15:22:39;99209.56;;;18.52;44.37
42603;BME280;28233;55.748;48.752;2022-09-20T15:24:42;99211.47;;;18.44;44.61
42603;BME280;28233;55.748;48.752;2022-09-20T15:26:46;99207.78;;;18.33;44.53
42603;BME280;28233;55.748;48.752;2022-09-20T15:28:49;99219.25;;;18.28;44.70
42603;BME280;28233;55.748;48.752;2022-09-20T15:30:52;99217.13;;;18.17;45.30
42603;BME280;28233;55.748;48.752;2022-09-20T15:32:55;99215.50;;;18.13;46.01
42603;BME280;28233;55.748;48.752;2022-09-20T15:35:04;99222.19;;;18.08;46.10
42603;BME280;28233;55.748;48.752;2022-09-20T15:37:07;99213.81;;;18.05;46.20
42603;BME280;28233;55.748;48.752;2022-09-20T15:39:10;99214.59;;;18.02;45.89
42603;BME280;28233;55.748;48.752;2022-09-20T15:41:14;99221.59;;;17.92;45.94
42603;BME280;28233;55.748;48.752;2022-09-20T15:43:19;99233.47;;;17.89;46.10
42603;BME280;28233;55.748;48.752;2022-09-20T15:45:27;99227.47;;;17.83;46.51
42603;BME280;28233;55.748;48.752;2022-09-20T15:47:30;99232.91;;;17.76;47.21
42603;BME280;28233;55.748;48.752;2022-09-20T15:49:33;99233.25;;;17.71;47.96
42603;BME280;28233;55.748;48.752;2022-09-20T15:51:36;99235.78;;;17.57;49.15
42603;BME280;28233;55.748;48.752;2022-09-20T15:53:45;99237.53;;;17.38;49.58
42603;BME280;28233;55.748;48.752;2022-09-20T15:55:50;99230.13;;;17.19;50.65
42603;BME280;28233;55.748;48.752;2022-09-20T15:57:52;99231.94;;;17.08;50.18
42603;BME280;28233;55.748;48.752;2022-09-20T15:59:55;99238.47;;;16.96;50.99
42603;BME280;28233;55.748;48.752;2022-09-20T16:01:59;99236.69;;;16.84;50.30
42603;BME280;28233;55.748;48.752;2022-09-20T16:04:10;99236.56;;;16.77;51.02
42603;BME280;28233;55.748;48.752;2022-09-20T16:06:13;99234.56;;;16.78;51.39
42603;BME280;28233;55.748;48.752;2022-09-20T16:08:16;99240.91;;;16.78;51.05